createdAt,value
2018-07-09T20:58:01.381Z,98037.00
2018-07-09T21:00:34.102Z,98040.00
2018-07-09T21:03:08.306Z,98040.00
2018-07-09T21:05:53.784Z,98041.00
2018-07-09T21:08:28.058Z,98042.00
2018-07-09T21:11:01.158Z,98043.00
2018-07-09T21:13:38.057Z,98043.00
2018-07-09T21:16:12.936Z,98045.00
2018-07-09T21:18:46.616Z,98044.00
2018-07-09T21:21:20.342Z,98041.00
2018-07-09T21:23:52.858Z,98039.00
2018-07-09T21:26:31.200Z,98038.00
2018-07-09T21:29:03.897Z,98037.00
2018-07-09T21:31:39.278Z,98040.00
2018-07-09T21:34:13.065Z,98035.00
2018-07-09T21:36:47.359Z,98027.00
2018-07-09T21:39:20.598Z,98029.00
2018-07-09T21:41:53.179Z,98030.00
2018-07-09T21:44:26.115Z,98031.00
2018-07-09T21:47:00.122Z,98032.00
2018-07-09T21:49:33.440Z,98030.00
2018-07-09T21:52:07.479Z,98034.00
2018-07-09T21:54:43.309Z,98028.00
2018-07-09T21:57:15.464Z,98031.00
2018-07-09T21:59:49.698Z,98028.00
2018-07-09T22:02:22.603Z,98031.00
2018-07-09T22:04:55.376Z,98039.00
2018-07-09T22:07:29.375Z,98032.00
2018-07-09T22:10:02.583Z,98027.00
2018-07-09T22:34:52.847Z,98037.00
2018-07-09T22:37:37.707Z,98042.00
2018-07-09T22:40:16.718Z,98036.00
2018-07-09T22:42:59.825Z,98039.00
2018-07-09T22:45:38.939Z,98033.00
2018-07-09T22:48:21.002Z,98035.00
2018-07-09T22:51:02.196Z,98033.00
2018-07-09T22:53:52.562Z,98034.00
2018-07-09T22:56:32.921Z,98034.00
2018-07-09T22:59:11.081Z,98028.00
2018-07-09T23:01:51.078Z,98028.00
2018-07-09T23:04:32.740Z,98026.00
2018-07-09T23:07:15.381Z,98026.00
2018-07-09T23:11:26.179Z,98037.00
2018-07-09T23:16:56.158Z,98030.00
2018-07-09T23:20:53.379Z,98031.00
2018-07-09T23:23:26.681Z,98038.00
2018-07-09T23:26:05.939Z,98037.00
2018-07-09T23:28:40.699Z,98036.00
2018-07-09T23:31:13.480Z,98032.00
